createdAt,value
2022-12-05T00:00:54.919Z,4.40
2022-12-05T00:03:22.407Z,4.40
2022-12-05T00:05:49.810Z,4.40
2022-12-05T00:08:17.015Z,4.40
2022-12-05T00:10:44.061Z,4.30
2022-12-05T00:13:11.462Z,4.40
2022-12-05T00:15:40.318Z,4.30
2022-12-05T00:18:07.302Z,4.30
2022-12-05T00:20:34.263Z,4.40
2022-12-05T00:23:01.248Z,4.40
2022-12-05T00:25:29.278Z,4.30
2022-12-05T00:27:56.055Z,4.30
2022-12-05T00:30:22.832Z,4.30
2022-12-05T00:32:49.590Z,4.30
2022-12-05T00:35:16.548Z,4.30
2022-12-05T00:37:43.370Z,4.30
2022-12-05T00:40:11.087Z,4.20
2022-12-05T00:42:37.898Z,4.20
2022-12-05T00:45:04.998Z,4.20
2022-12-05T00:47:35.622Z,4.20
2022-12-05T00:50:03.854Z,4.30
2022-12-05T00:52:31.029Z,4.30
2022-12-05T00:54:57.911Z,4.30
2022-12-05T00:57:24.744Z,4.20
2022-12-05T00:59:51.602Z,4.20
2022-12-05T01:02:18.522Z,4.20
2022-12-05T01:04:45.315Z,4.30
2022-12-05T01:07:12.178Z,4.20
2022-12-05T01:09:39.180Z,4.10
2022-12-05T01:12:06.183Z,4.10
2022-12-05T01:14:33.190Z,4.20
2022-12-05T01:17:00.244Z,4.20
2022-12-05T01:19:30.546Z,4.20
2022-12-05T01:21:58.289Z,4.20
2022-12-05T01:24:26.659Z,4.10
2022-12-05T01:26:53.801Z,4.00
2022-12-05T01:29:22.059Z,4.00
2022-12-05T01:31:49.020Z,4.10
2022-12-05T01:34:17.734Z,4.10
2022-12-05T01:36:45.310Z,4.00
2022-12-05T01:39:13.140Z,4.00
2022-12-05T01:41:43.464Z,4.00
2022-12-05T01:44:13.388Z,4.00
2022-12-05T01:46:46.768Z,4.00
2022-12-05T01:49:33.727Z,4.00
2022-12-05T01:52:04.731Z,4.00
2022-12-05T01:54:32.025Z,4.00
2022-12-05T01:57:03.014Z,4.00
2022-12-05T01:59:35.956Z,4.00
2022-12-05T02:02:04.062Z,3.90
2022-12-05T02:04:31.886Z,3.90
2022-12-05T02:06:58.657Z,3.90
2022-12-05T02:09:25.398Z,3.90
2022-12-05T02:12:01.046Z,3.90
2022-12-05T02:14:56.965Z,3.90
2022-12-05T02:17:29.721Z,3.90
2022-12-05T02:20:25.863Z,3.90
2022-12-05T02:23:24.413Z,3.90
2022-12-05T02:25:57.249Z,4.00
2022-12-05T02:28:35.697Z,3.90
2022-12-05T02:31:18.768Z,3.90
2022-12-05T02:33:50.881Z,3.90
2022-12-05T02:36:37.869Z,3.90
2022-12-05T02:39:07.422Z,3.90
2022-12-05T02:42:10.416Z,3.90
2022-12-05T02:44:43.036Z,3.90
2022-12-05T02:47:11.761Z,3.90
2022-12-05T02:49:40.717Z,3.90
2022-12-05T02:52:12.363Z,3.90
2022-12-05T02:54:42.377Z,3.90
2022-12-05T02:57:11.494Z,3.90
2022-12-05T02:59:38.484Z,3.80
2022-12-05T03:02:05.692Z,3.80
2022-12-05T03:04:32.923Z,3.80
2022-12-05T03:07:12.404Z,3.80
2022-12-05T03:09:41.884Z,3.80
2022-12-05T03:12:30.935Z,3.90
2022-12-05T03:15:18.772Z,3.80
2022-12-05T03:18:00.645Z,3.80
2022-12-05T03:20:32.223Z,3.80
2022-12-05T03:23:01.830Z,3.90
2022-12-05T03:25:48.762Z,3.80
2022-12-05T03:28:39.762Z,3.80
2022-12-05T03:31:12.295Z,3.80
2022-12-05T03:33:43.833Z,3.80
2022-12-05T03:36:18.526Z,3.80
2022-12-05T03:38:57.732Z,3.80
2022-12-05T03:42:09.382Z,3.80
2022-12-05T03:44:44.986Z,3.80
2022-12-05T03:47:28.329Z,3.80
2022-12-05T03:50:01.047Z,3.80
2022-12-05T03:52:50.935Z,3.80
2022-12-05T03:55:18.482Z,3.80
2022-12-05T03:57:59.834Z,3.70
2022-12-05T04:00:31.854Z,3.70
2022-12-05T04:03:19.899Z,3.70
2022-12-05T04:05:55.076Z,3.80
2022-12-05T04:08:43.440Z,3.70
2022-12-05T04:11:16.215Z,3.70
2022-12-05T04:14:06.815Z,3.70
2022-12-05T04:16:59.339Z,3.70
2022-12-05T04:19:37.884Z,3.70
2022-12-05T04:22:04.716Z,3.70
2022-12-05T04:24:32.654Z,3.80
2022-12-05T04:27:12.773Z,3.80
2022-12-05T04:29:49.870Z,3.70
2022-12-05T04:32:20.335Z,3.80
2022-12-05T04:34:54.304Z,3.70
2022-12-05T04:37:24.533Z,3.70
2022-12-05T04:39:57.872Z,3.70
2022-12-05T04:42:28.356Z,3.70
2022-12-05T04:45:06.270Z,3.70
2022-12-05T04:47:39.542Z,3.70
2022-12-05T04:50:10.277Z,3.70
2022-12-05T04:52:38.338Z,3.70
2022-12-05T04:55:18.113Z,3.70
2022-12-05T04:58:05.982Z,3.70
2022-12-05T05:00:53.398Z,3.70
2022-12-05T05:03:49.400Z,3.60
2022-12-05T05:06:16.744Z,3.60
2022-12-05T05:08:54.963Z,3.70
2022-12-05T05:11:30.380Z,3.70
2022-12-05T05:13:57.278Z,3.70
2022-12-05T05:16:25.312Z,3.70
2022-12-05T05:18:53.265Z,3.60
2022-12-05T05:21:23.214Z,3.60
2022-12-05T05:23:50.114Z,3.70
2022-12-05T05:26:17.836Z,3.70
2022-12-05T05:28:45.772Z,3.60
2022-12-05T05:31:13.450Z,3.70
2022-12-05T05:33:40.606Z,3.70
2022-12-05T05:36:10.172Z,3.80
2022-12-05T05:38:38.545Z,3.70
2022-12-05T05:41:06.007Z,3.70
2022-12-05T05:43:32.847Z,3.60
2022-12-05T05:46:03.137Z,3.60
2022-12-05T05:48:29.990Z,3.60
2022-12-05T05:50:59.434Z,3.70
2022-12-05T05:53:26.416Z,3.70
2022-12-05T05:55:53.572Z,3.70
2022-12-05T05:58:20.597Z,3.70
2022-12-05T06:00:47.447Z,3.60
2022-12-05T06:03:14.308Z,3.70
2022-12-05T06:05:41.163Z,3.70
2022-12-05T06:08:08.158Z,3.70
2022-12-05T06:10:35.024Z,3.70
2022-12-05T06:13:01.903Z,3.70
2022-12-05T06:15:28.709Z,3.70
2022-12-05T06:17:56.858Z,3.70
2022-12-05T06:20:23.718Z,3.70
2022-12-05T06:22:50.467Z,3.70
2022-12-05T06:25:17.450Z,3.70
2022-12-05T06:27:44.267Z,3.70
2022-12-05T06:30:11.450Z,3.70
2022-12-05T06:32:38.376Z,3.70
2022-12-05T06:35:05.598Z,3.70
2022-12-05T06:37:32.379Z,3.70
2022-12-05T06:39:59.252Z,3.70
2022-12-05T06:42:26.173Z,3.60
2022-12-05T06:44:52.904Z,3.70
2022-12-05T06:47:19.743Z,3.70
2022-12-05T06:49:46.530Z,3.70
2022-12-05T06:52:13.375Z,3.70
2022-12-05T06:54:40.276Z,3.60
2022-12-05T06:57:07.119Z,3.70
2022-12-05T06:59:33.896Z,3.70
2022-12-05T07:02:00.806Z,3.60
2022-12-05T07:04:27.630Z,3.60
2022-12-05T07:06:56.010Z,3.70
2022-12-05T07:09:25.099Z,3.60
2022-12-05T07:11:51.995Z,3.60
2022-12-05T07:14:45.801Z,3.60
2022-12-05T07:17:05.809Z,3.60
2022-12-05T07:19:32.691Z,3.60
2022-12-05T07:21:59.461Z,3.70
2022-12-05T07:24:26.417Z,3.70
2022-12-05T07:26:53.243Z,3.60
2022-12-05T07:29:20.037Z,3.60
2022-12-05T07:31:46.862Z,3.60
2022-12-05T07:34:13.980Z,3.60
2022-12-05T07:36:40.755Z,3.70
2022-12-05T07:39:07.486Z,3.70
2022-12-05T07:41:34.355Z,3.70
2022-12-05T07:44:06.159Z,3.70
2022-12-05T07:46:33.046Z,3.60
2022-12-05T07:48:59.901Z,3.60
2022-12-05T07:51:26.660Z,3.70
2022-12-05T07:53:53.529Z,3.70
2022-12-05T07:56:20.513Z,3.70
2022-12-05T07:58:49.375Z,3.70
2022-12-05T08:01:18.642Z,3.70
2022-12-05T08:03:46.314Z,3.70
2022-12-05T08:06:19.018Z,3.70
2022-12-05T08:08:46.256Z,3.70
2022-12-05T08:11:15.695Z,3.70
2022-12-05T08:13:43.220Z,3.70
2022-12-05T08:16:12.443Z,3.70
2022-12-05T08:18:39.875Z,3.70
2022-12-05T08:21:12.265Z,3.70
2022-12-05T08:23:39.513Z,3.60
2022-12-05T08:26:12.341Z,3.70
2022-12-05T08:28:39.862Z,3.70
2022-12-05T08:31:12.222Z,3.80
2022-12-05T08:33:39.830Z,3.80
2022-12-05T08:36:09.833Z,3.80
2022-12-05T08:38:37.118Z,3.70
2022-12-05T08:41:07.665Z,3.80
2022-12-05T08:43:34.841Z,3.80
2022-12-05T08:46:02.453Z,3.80
2022-12-05T08:48:31.177Z,3.70
2022-12-05T08:50:58.450Z,3.70
2022-12-05T08:53:25.890Z,3.80
2022-12-05T08:55:52.800Z,3.80
2022-12-05T08:58:19.600Z,3.80
2022-12-05T09:00:46.392Z,3.80
2022-12-05T09:03:13.204Z,3.80
2022-12-05T09:05:40.092Z,3.80
2022-12-05T09:08:07.043Z,3.90
2022-12-05T09:10:34.049Z,3.90
2022-12-05T09:13:00.918Z,3.80
2022-12-05T09:15:28.124Z,3.80
2022-12-05T09:17:55.192Z,3.80
2022-12-05T09:20:22.478Z,3.80
2022-12-05T09:22:49.212Z,3.80
2022-12-05T09:25:16.063Z,3.80
2022-12-05T09:27:43.317Z,3.90
2022-12-05T09:30:10.468Z,3.90
2022-12-05T09:32:51.070Z,3.90
2022-12-05T09:35:17.847Z,3.90
2022-12-05T09:37:44.619Z,3.90
2022-12-05T09:40:17.303Z,3.90
2022-12-05T09:42:56.271Z,3.90
2022-12-05T09:45:43.802Z,4.00
2022-12-05T09:48:19.582Z,4.00
2022-12-05T09:51:03.008Z,4.00
2022-12-05T09:53:37.006Z,4.00
